Historique des mesures à Cassis (13260), France
Quotidien Résumé Juin 30, 2021 Unités:  US    Métrique   Métrique/US
Quotidien Hebdomadaire Mensuel Annuel
  Maximum: Minimum: Moyenne:
Température: 62.8 °F 59 °F 61.5 °F
Point de rosée: 60.3 °F 54.7 °F 56.8 °F
Humidité: 91% 76% 85%
Vitesse du vent: 9.8mph 0mph 4.3mph
Rafales: 57mph - -
Vent- - ESE
Pression: 29.9 in 29.8 in -
Précipitations: 1.39 in    
Historical Graphs
 
 
Mesures pour : Juin 30, 2021
Heure Temperature Point de rosée Pression Vent Vitesse du vent Rafales Humidité Pluie (par heure)
00:11 62.4 °F 54.7 °F 29.9 in Calm   8.1 mph 76% 0 in
01:11 62.4 °F 54.7 °F 29.9 in SE 3.8 mph 7.6 mph 76% 0 in
02:12 62.4 °F 54.7 °F 29.9 in Calm   3.4 mph 76% 0 in
03:11 62.2 °F 54.9 °F 29.8 in ESE 2 mph 3.6 mph 77% 0 in
04:11 61.5 °F 55.6 °F 29.8 in ESE 4 mph 9.8 mph 81% 0 in
05:11 62.2 °F 56.3 °F 29.8 in ESE 2.7 mph 10.3 mph 81% 0 in
06:11 62.4 °F 56.8 °F 29.8 in ESE 3.4 mph 11.2 mph 82% 0 in
07:11 62.8 °F 57.2 °F 29.8 in ESE 4.9 mph 10.5 mph 82% 0 in
08:11 62.4 °F 58.1 °F 29.8 in ESE 6.5 mph 14.8 mph 86% 0.02 in
09:11 62.8 °F 58.8 °F 29.8 in ESE 5.3 mph 14.5 mph 87% 0.1 in
10:11 62.2 °F 58.6 °F 29.8 in SE 6.3 mph 57 mph 88% 0.18 in
11:11 62.2 °F 59 °F 29.8 in Calm   10.1 mph 89% 0.02 in
12:11 62.4 °F 59.5 °F 29.8 in ESE 6.5 mph 13.2 mph 90% 0.06 in
13:11 62.8 °F 60.3 °F 29.8 in SE 2.2 mph 11.4 mph 91% 0.22 in
14:11 61.7 °F 58.8 °F 29.8 in Calm   2.9 mph 90% 0.24 in
15:11 61 °F 57.7 °F 29.8 in SE 1.8 mph 6.5 mph 89% 0.12 in
16:11 60.3 °F 57.4 °F 29.8 in East 4.5 mph 15.4 mph 90% 0.16 in
17:11 59.2 °F 56.3 °F 29.8 in ESE 6.3 mph 8.1 mph 90% 0.16 in
18:11 59 °F 56.1 °F 29.8 in ENE 8.9 mph 9.6 mph 90% 0.08 in
19:11 59.4 °F 56.5 °F 29.8 in ESE 9.8 mph 10.7 mph 90% 0 in
20:11 59.7 °F 56.1 °F 29.8 in ENE 8.1 mph 10.1 mph 88% 0 in
21:11 60.1 °F 55.9 °F 29.8 in NE 5.6 mph 10.3 mph 86% 0 in
22:11 60.6 °F 55.8 °F 29.8 in ESE 5.8 mph 12.7 mph 84% 0 in
23:11 60.6 °F 55.4 °F 29.8 in SE 4.7 mph 10.5 mph 83% 0 in
Observations météo à CASSIS
WU-History script by Weather Underground - 2 mb